Terminal Aerodrome Forecast
Issued by NWS Twin Cities, MN

Home | Current Version | Previous Version | Graphics & Text | Print | Product List | Glossary On
Versions: 1 2 3 4 5 6 7 8 9 10 11 12 13 14 15 16 17 18 19 20
000
FTUS43 KMPX 011100
TAFEAU
TAF
KEAU 011132Z 0112/0212 22006KT 6SM -SHRA SCT010 BKN050
      TEMPO 0112/0115 3SM -SHRA BKN010
     FM011500 25006KT P6SM VCSH BKN020
     FM011700 29011KT P6SM SCT020 BKN050
     FM020000 27006KT P6SM SCT200
     FM020500 25003KT P6SM BKN100=

USA.gov is the U.S. government's official web portal to all federal, state and local government web resources and services.